»·PEaware :: DEFEL KBUR-KSBD

DEFEL :: KBUR-KSBD

FLIGHT INFORMATION

Flight Status: Arrived
Operator: Unknown
More flights by this operator :: More flights under this callsign
Pilot: Felix S. (34170)
Aircraft: CIRRUS SR-22
(SR22)
More flights by this aircraft type
Origin: KBUR Bob Hope-Burbank
United States
Destination: KSBD San Bernardino Intl
United States
More flights between these airports :: More routes between these airports
Route: ELMOO9 ELMOO V186 PDZ
File this flight plan on PilotEdge
Remarks:
Altitude:
(Current/Filed)
5,000ft
Speed:
(Current/Filed)
170kts
Departed: 23-Jul-21 01:24 PM
Arrived: 23-Jul-21 02:00 PM
Distance/Time
Traveled:
56nm/0:36
Distance/Time
To Go:
Arrived

Flight Plot

Page will automatically refresh every two minutes.

Flight plan parsing failed; only flown route is shown


Map Options




Map Legend


Flown Route
Filed Route
Departure Airport
Arrival Airport
Navaid (VOR, NDB)
Fix

Horizontal Profiles

Position Reports

Time Latitude Longitude Heading Altitude Ground
Speed
23-Jul-21 13:05 34.200210 -118.358863 280 720ft 0kts
23-Jul-21 13:06 34.200210 -118.358863 280 720ft 0kts
23-Jul-21 13:07 34.200210 -118.358863 280 720ft 0kts
23-Jul-21 13:08 34.200210 -118.358863 280 720ft 0kts
23-Jul-21 13:09 34.200210 -118.358863 280 720ft 0kts
23-Jul-21 13:10 34.200210 -118.358863 280 720ft 0kts
23-Jul-21 13:11 34.200210 -118.358863 280 720ft 0kts
23-Jul-21 13:12 34.200210 -118.358863 280 720ft 0kts
23-Jul-21 13:13 34.200210 -118.358863 280 720ft 0kts
23-Jul-21 13:14 34.200210 -118.358863 280 720ft 0kts
23-Jul-21 13:15 34.200210 -118.358863 280 720ft 0kts
23-Jul-21 13:16 34.199960 -118.358186 350 718ft 7kts
23-Jul-21 13:17 34.201932 -118.358759 347 727ft 13kts
23-Jul-21 13:18 34.206607 -118.360044 349 744ft 14kts
23-Jul-21 13:19 34.211065 -118.361274 347 766ft 27kts
23-Jul-21 13:20 34.211459 -118.361214 54 766ft 0kts
23-Jul-21 13:21 34.211459 -118.361214 54 766ft 0kts
23-Jul-21 13:22 34.211772 -118.360372 156 765ft 13kts
23-Jul-21 13:23 34.194751 -118.354270 131 1497ft 106kts
23-Jul-21 13:24 34.181641 -118.330612 124 2873ft 106kts
23-Jul-21 13:25 34.169394 -118.307312 122 3947ft 118kts
23-Jul-21 13:26 34.157733 -118.279257 111 3965ft 158kts
23-Jul-21 13:27 34.148220 -118.247437 112 4799ft 134kts
23-Jul-21 13:28 34.139641 -118.218921 112 5019ft 155kts
23-Jul-21 13:29 34.130214 -118.187401 112 5010ft 166kts
23-Jul-21 13:30 34.120476 -118.154878 113 5008ft 169kts
23-Jul-21 13:31 34.110544 -118.121707 113 5007ft 170kts
23-Jul-21 13:32 34.100467 -118.088057 113 5007ft 171kts
23-Jul-21 13:33 34.090119 -118.054168 113 5018ft 171kts
23-Jul-21 13:34 34.078054 -118.014889 113 5021ft 172kts
23-Jul-21 13:35 34.065406 -117.973759 113 5023ft 173kts
23-Jul-21 13:36 34.052532 -117.931950 113 5024ft 174kts
23-Jul-21 13:37 34.039552 -117.889852 113 5025ft 175kts
23-Jul-21 13:38 34.028341 -117.853553 113 5025ft 175kts
23-Jul-21 13:39 34.017509 -117.818554 113 5024ft 176kts
23-Jul-21 13:40 34.006604 -117.783403 113 5021ft 176kts
23-Jul-21 13:41 33.995747 -117.749679 116 5008ft 163kts
23-Jul-21 13:42 33.982877 -117.713113 116 5018ft 173kts
23-Jul-21 13:43 33.969041 -117.673805 116 5013ft 175kts
23-Jul-21 13:44 33.955224 -117.634607 116 5011ft 176kts
23-Jul-21 13:45 33.941737 -117.596388 116 5009ft 176kts
23-Jul-21 13:46 33.933220 -117.560279 81 4996ft 171kts
23-Jul-21 13:47 33.938381 -117.524869 81 5015ft 178kts
23-Jul-21 13:48 33.950834 -117.493888 23 4993ft 171kts
23-Jul-21 13:49 33.978596 -117.479398 21 5017ft 177kts
23-Jul-21 13:50 34.006081 -117.461794 51 5012ft 179kts
23-Jul-21 13:51 34.025062 -117.432375 51 4181ft 171kts
23-Jul-21 13:52 34.042515 -117.404606 51 3419ft 156kts
23-Jul-21 13:53 34.053979 -117.378785 75 3272ft 138kts
23-Jul-21 13:54 34.060867 -117.351831 68 2814ft 112kts
23-Jul-21 13:55 34.067464 -117.328988 68 2512ft 105kts
23-Jul-21 13:56 34.073728 -117.307337 69 2094ft 101kts
23-Jul-21 13:57 34.080115 -117.286650 71 1727ft 97kts
23-Jul-21 13:58 34.087104 -117.262580 70 1339ft 99kts
23-Jul-21 13:59 34.093048 -117.242538 60 1097ft 36kts
23-Jul-21 14:00 34.094368 -117.240891 46 1100ft 0kts
23-Jul-21 14:01 34.095841 -117.239309 65 1106ft 26kts
23-Jul-21 14:02 34.098972 -117.228642 70 1134ft 50kts

Navigation Log

Ident Type
Flight plan parsing failed, navigation log unavailable